Time;durP1;ratioP1;P1;durP2;ratioP2;P2;SDS_P1;SDS_P2;PMS_P1;PMS_P2;Temp;Humidity;BMP_temperature;BMP_pressure;BME280_temperature;BME280_humidity;BME280_pressure;Samples;Min_cycle;Max_cycle;Signal;HPM_P1;HPM_P2
2024/03/17 00:02:16;;;;;;;0.10;0.10;;;;;;;9.55;61.50;102395.09;5095136;28;20039;-77
2024/03/17 00:04:42;;;;;;;0.15;0.15;;;;;;;9.58;61.49;102396.88;5093189;28;20047;-75
2024/03/17 00:07:08;;;;;;;1.33;1.23;;;;;;;9.60;61.34;102397.81;5093676;28;20023;-77
2024/03/17 00:09:35;;;;;;;0.10;0.10;;;;;;;9.55;61.93;102389.81;5093279;28;20043;-77
2024/03/17 00:12:01;;;;;;;0.20;0.20;;;;;;;9.60;61.74;102381.91;5095705;28;20043;-81
2024/03/17 00:14:28;;;;;;;1.15;0.95;;;;;;;9.58;61.31;102383.66;5097243;28;20024;-80
2024/03/17 00:16:55;;;;;;;0.10;0.10;;;;;;;9.53;61.63;102380.97;5092800;28;20600;-78
2024/03/17 00:19:23;;;;;;;0.10;0.10;;;;;;;9.53;61.47;102375.66;5097977;28;20032;-78
2024/03/17 00:21:51;;;;;;;0.10;0.10;;;;;;;9.55;61.65;102368.63;5097937;28;20043;-77
2024/03/17 00:24:19;;;;;;;0.10;0.10;;;;;;;9.55;61.45;102379.22;5094338;28;20024;-78
2024/03/17 00:26:46;;;;;;;0.00;0.00;;;;;;;9.53;61.86;102375.66;5093352;28;20028;-78
2024/03/17 00:29:14;;;;;;;0.82;0.77;;;;;;;9.52;61.86;102376.53;5094498;28;20035;-79
2024/03/17 00:31:41;;;;;;;0.10;0.10;;;;;;;9.51;61.96;102373.03;5094172;28;20032;-79
2024/03/17 00:34:07;;;;;;;0.10;0.10;;;;;;;9.50;61.67;102376.53;5094823;28;20025;-79
2024/03/17 00:36:33;;;;;;;0.38;0.38;;;;;;;9.49;61.83;102374.75;5093579;28;20372;-76
2024/03/17 00:39:00;;;;;;;0.00;0.00;;;;;;;9.51;61.83;102374.78;5094085;28;20076;-78
2024/03/17 00:41:26;;;;;;;0.32;0.32;;;;;;;9.49;61.88;102376.53;5095358;28;20441;-76
2024/03/17 00:43:52;;;;;;;0.32;0.32;;;;;;;9.50;61.93;102381.81;5093909;28;20028;-77
2024/03/17 00:46:21;;;;;;;0.10;0.10;;;;;;;9.53;61.97;102375.66;5093878;28;20028;-76
2024/03/17 00:48:49;;;;;;;0.10;0.10;;;;;;;9.54;61.88;102382.75;5091023;28;20146;-78
2024/03/17 00:51:15;;;;;;;0.10;0.10;;;;;;;9.53;61.58;102371.28;5093935;28;20491;-78
2024/03/17 00:53:42;;;;;;;0.03;0.03;;;;;;;9.51;62.10;102366.84;5093643;28;20032;-77
2024/03/17 00:56:08;;;;;;;0.22;0.22;;;;;;;9.54;61.71;102364.22;5094147;28;20066;-76
2024/03/17 00:58:35;;;;;;;0.65;0.65;;;;;;;9.54;61.74;102365.13;5093203;28;20027;-77
2024/03/17 01:01:01;;;;;;;0.10;0.10;;;;;;;9.51;61.74;102365.06;5092940;28;20399;-79
2024/03/17 01:03:28;;;;;;;0.03;0.03;;;;;;;9.52;61.81;102353.63;5093985;28;20028;-77
2024/03/17 01:05:54;;;;;;;0.20;0.20;;;;;;;9.54;61.63;102350.97;5093524;28;20536;-76
2024/03/17 01:08:21;;;;;;;0.10;0.10;;;;;;;9.55;61.82;102356.28;5107316;28;20069;-75
2024/03/17 01:10:51;;;;;;;0.10;0.10;;;;;;;9.53;61.79;102342.19;5107070;28;20070;-76
2024/03/17 01:13:17;;;;;;;0.13;0.13;;;;;;;9.57;61.76;102345.75;5105313;28;20493;-79
2024/03/17 01:15:44;;;;;;;0.88;0.55;;;;;;;9.59;62.04;102340.44;5104675;28;20020;-78
2024/03/17 01:18:10;;;;;;;0.10;0.10;;;;;;;9.62;61.90;102333.44;5094243;28;20027;-77
2024/03/17 01:20:37;;;;;;;0.10;0.10;;;;;;;9.65;61.75;102328.13;5112892;28;20036;-77
2024/03/17 01:23:04;;;;;;;0.47;0.47;;;;;;;9.69;61.47;102326.41;5107628;28;20046;-78
2024/03/17 01:25:35;;;;;;;0.10;0.10;;;;;;;9.71;61.38;102322.91;5118626;28;20027;-80
2024/03/17 01:28:02;;;;;;;1.75;1.25;;;;;;;9.75;61.39;102325.56;5109011;28;20124;-79
2024/03/17 01:30:28;;;;;;;0.10;0.10;;;;;;;9.63;61.83;102321.06;5109419;28;20023;-79
2024/03/17 01:32:54;;;;;;;0.05;0.05;;;;;;;9.66;61.69;102329.03;5107440;28;20031;-79
2024/03/17 01:35:21;;;;;;;0.10;0.10;;;;;;;9.68;61.65;102322.88;5108025;28;20114;-79
2024/03/17 01:37:47;;;;;;;0.10;0.10;;;;;;;9.72;61.70;102318.50;5105414;28;20046;-79
2024/03/17 01:40:14;;;;;;;0.10;0.10;;;;;;;9.78;61.62;102317.66;5102265;28;20031;-79
2024/03/17 01:42:41;;;;;;;0.10;0.10;;;;;;;9.78;61.80;102307.97;5103151;28;20058;-80
2024/03/17 01:45:28;;;;;;;0.10;0.10;;;;;;;9.86;61.69;102315.94;5099227;28;20036;-78
2024/03/17 01:47:59;;;;;;;0.00;0.00;;;;;;;9.80;61.73;102311.47;5095590;28;20384;-79
2024/03/17 01:50:28;;;;;;;0.20;0.20;;;;;;;9.79;61.88;102311.47;5101764;28;20486;-78
2024/03/17 01:52:59;;;;;;;0.10;0.10;;;;;;;9.78;61.80;102312.34;5105405;28;20079;-78
2024/03/17 01:55:27;;;;;;;0.38;0.38;;;;;;;9.70;61.96;102307.88;5091404;28;20494;-79
2024/03/17 01:57:54;;;;;;;0.10;0.10;;;;;;;9.63;61.83;102300.81;5098584;28;20058;-78
2024/03/17 02:00:21;;;;;;;0.10;0.10;;;;;;;9.68;61.49;102296.41;5094385;28;20023;-77
2024/03/17 02:02:47;;;;;;;0.20;0.20;;;;;;;9.65;61.41;102290.22;5103911;28;20084;-77
2024/03/17 02:05:14;;;;;;;0.10;0.10;;;;;;;9.61;61.43;102297.25;5101875;28;20566;-76
2024/03/17 02:07:40;;;;;;;0.10;0.10;;;;;;;9.54;61.56;102291.03;5097582;28;20508;-77
2024/03/17 02:10:08;;;;;;;0.13;0.13;;;;;;;9.50;61.87;102291.84;5096826;28;20044;-77
2024/03/17 02:12:35;;;;;;;0.10;0.10;;;;;;;9.44;62.17;102288.28;5103840;28;20524;-78
2024/03/17 02:15:05;;;;;;;0.55;0.55;;;;;;;9.45;61.69;102292.72;5100318;28;21319;-76
2024/03/17 02:17:32;;;;;;;0.20;0.20;;;;;;;9.45;62.00;102282.13;5104315;28;20501;-76
2024/03/17 02:19:59;;;;;;;0.10;0.10;;;;;;;9.42;62.24;102282.09;5111373;28;20043;-76
2024/03/17 02:22:25;;;;;;;0.35;0.35;;;;;;;9.39;62.26;102281.22;5102000;28;20056;-77
2024/03/17 02:24:52;;;;;;;0.00;0.00;;;;;;;9.36;62.63;102273.25;5100755;28;20028;-77
2024/03/17 02:27:18;;;;;;;0.10;0.10;;;;;;;9.34;62.67;102274.97;5102512;28;20032;-77
2024/03/17 02:29:45;;;;;;;0.10;0.10;;;;;;;9.36;62.67;102278.53;5098267;28;20024;-78
2024/03/17 02:32:12;;;;;;;0.68;0.68;;;;;;;9.35;62.50;102271.47;5104641;28;20139;-77
2024/03/17 02:34:39;;;;;;;0.15;0.15;;;;;;;9.34;62.58;102277.63;5098895;28;20032;-78
2024/03/17 02:37:06;;;;;;;0.20;0.20;;;;;;;9.36;62.71;102275.88;5098740;28;20024;-78
2024/03/17 02:39:34;;;;;;;0.30;0.30;;;;;;;9.36;62.73;102267.94;5099266;28;20160;-75
2024/03/17 02:44:40;;;;;;;0.20;0.20;;;;;;;9.38;62.91;102267.94;5149065;27;20386;-78
2024/03/17 02:47:08;;;;;;;0.10;0.10;;;;;;;9.37;62.77;102266.19;5133101;27;20080;-77
2024/03/17 02:49:37;;;;;;;0.10;0.10;;;;;;;9.36;62.86;102265.31;5104546;28;20036;-77
2024/03/17 02:52:05;;;;;;;0.10;0.10;;;;;;;9.36;62.98;102262.66;5093555;28;20161;-80
2024/03/17 02:54:32;;;;;;;0.10;0.10;;;;;;;9.36;63.26;102262.66;5090670;28;20095;-79
2024/03/17 02:56:59;;;;;;;0.10;0.10;;;;;;;9.35;63.43;102255.59;5087771;28;20035;-78
2024/03/17 02:59:26;;;;;;;0.70;0.45;;;;;;;9.40;63.25;102258.28;5093864;28;20798;-79
2024/03/17 03:01:53;;;;;;;0.10;0.10;;;;;;;9.44;63.65;102259.19;5093735;28;20155;-77
2024/03/17 03:04:20;;;;;;;0.10;0.10;;;;;;;9.43;63.52;102254.78;5089977;28;20078;-79
2024/03/17 03:06:46;;;;;;;0.10;0.10;;;;;;;9.46;63.63;102254.78;5094996;28;20040;-77
2024/03/17 03:09:13;;;;;;;0.10;0.10;;;;;;;9.46;63.99;102262.72;5088856;28;20028;-77
2024/03/17 03:11:43;;;;;;;0.10;0.10;;;;;;;9.42;64.28;102260.94;5099744;28;20467;-76
2024/03/17 03:14:09;;;;;;;0.63;0.63;;;;;;;9.50;64.15;102254.81;5085806;28;20129;-76
2024/03/17 03:16:35;;;;;;;0.13;0.13;;;;;;;9.54;64.11;102253.09;5098951;28;20035;-76
2024/03/17 03:19:01;;;;;;;0.10;0.10;;;;;;;9.62;63.57;102247.84;5070630;28;20044;-78
2024/03/17 03:21:28;;;;;;;0.10;0.10;;;;;;;9.64;63.80;102246.97;5094881;28;20103;-78
2024/03/17 03:23:54;;;;;;;0.10;0.10;;;;;;;9.68;63.63;102245.22;5088302;28;20511;-78
2024/03/17 03:26:20;;;;;;;0.20;0.20;;;;;;;9.73;63.71;102238.19;5089759;28;20028;-78
2024/03/17 03:28:46;;;;;;;0.10;0.10;;;;;;;9.62;63.96;102232.88;5097884;28;20037;-78
2024/03/17 03:31:13;;;;;;;0.30;0.25;;;;;;;9.69;63.75;102228.47;5106294;28;20080;-77
2024/03/17 03:33:41;;;;;;;0.10;0.10;;;;;;;9.67;63.66;102214.34;5113972;28;20029;-78
2024/03/17 03:38:45;;;;;;;0.10;0.10;;;;;;;9.60;63.72;102205.50;5139589;27;20358;-77
2024/03/17 03:41:15;;;;;;;0.20;0.20;;;;;;;9.64;64.02;102204.63;5111990;28;20027;-78
2024/03/17 03:43:43;;;;;;;0.75;0.75;;;;;;;9.60;63.84;102194.91;5109440;28;20194;-77
2024/03/17 03:46:09;;;;;;;0.63;0.60;;;;;;;9.59;63.97;102193.13;5106871;28;20038;-77
2024/03/17 03:48:35;;;;;;;0.10;0.10;;;;;;;9.62;63.76;102186.97;5094687;28;20070;-79
2024/03/17 03:51:07;;;;;;;0.90;0.57;;;;;;;9.64;63.57;102191.41;5095675;28;20111;-80
2024/03/17 03:53:34;;;;;;;0.20;0.20;;;;;;;9.59;63.79;102192.25;5096642;28;20091;-78
2024/03/17 03:56:05;;;;;;;0.20;0.20;;;;;;;9.59;63.91;102187.84;5099489;28;20092;-80
2024/03/17 03:58:34;;;;;;;0.20;0.20;;;;;;;9.57;63.86;102186.97;5093897;28;20024;-79
2024/03/17 04:01:05;;;;;;;0.10;0.10;;;;;;;9.57;63.87;102188.72;5095806;28;20039;-79
2024/03/17 04:03:33;;;;;;;1.17;0.52;;;;;;;9.54;63.50;102184.28;5094562;28;20511;-78
2024/03/17 04:08:41;;;;;;;0.73;0.65;;;;;;;9.47;63.63;102169.25;5118254;27;20370;-79
2024/03/17 04:11:08;;;;;;;0.10;0.10;;;;;;;9.43;63.94;102165.69;5094384;28;20025;-80
2024/03/17 04:13:34;;;;;;;1.65;1.55;;;;;;;9.40;63.61;102168.34;5091479;28;20044;-78
2024/03/17 04:16:06;;;;;;;0.55;0.55;;;;;;;9.39;63.73;102174.50;5089490;28;20085;-77
2024/03/17 04:18:34;;;;;;;0.10;0.10;;;;;;;9.35;64.32;102165.66;5100751;28;20032;-77
2024/03/17 04:21:06;;;;;;;0.10;0.10;;;;;;;9.38;64.18;102170.97;5096927;28;20027;-77
2024/03/17 04:23:32;;;;;;;0.10;0.10;;;;;;;9.38;63.99;102170.09;5096659;28;20477;-77
2024/03/17 04:26:00;;;;;;;0.13;0.13;;;;;;;9.36;64.03;102187.72;5105831;28;20040;-80
2024/03/17 04:28:27;;;;;;;0.20;0.20;;;;;;;9.33;64.21;102192.97;5105695;28;20030;-80
2024/03/17 04:30:53;;;;;;;0.60;0.60;;;;;;;9.33;64.20;102185.94;5093470;28;20043;-80
2024/03/17 04:33:19;;;;;;;0.10;0.10;;;;;;;9.32;64.10;102186.81;5098800;28;20193;-79
2024/03/17 04:35:45;;;;;;;0.25;0.25;;;;;;;9.33;64.06;102187.69;5108397;28;20519;-80
2024/03/17 04:38:14;;;;;;;0.93;0.93;;;;;;;9.31;63.79;102182.41;5106108;28;20016;-80
2024/03/17 04:40:41;;;;;;;0.08;0.08;;;;;;;9.27;63.94;102188.53;5109179;28;20027;-80
2024/03/17 04:43:08;;;;;;;0.22;0.22;;;;;;;9.22;64.27;102179.66;5113781;28;20087;-78
2024/03/17 04:45:34;;;;;;;0.30;0.30;;;;;;;9.21;64.31;102172.63;5113472;28;20087;-78
2024/03/17 04:48:01;;;;;;;0.10;0.10;;;;;;;9.19;64.21;102169.09;5106309;28;20028;-78
2024/03/17 04:50:31;;;;;;;0.13;0.13;;;;;;;9.14;64.36;102165.53;5095584;28;20411;-80
2024/03/17 04:52:59;;;;;;;1.25;1.05;;;;;;;9.10;64.13;102166.34;5098062;28;20063;-80
2024/03/17 04:55:25;;;;;;;0.47;0.47;;;;;;;9.09;64.68;102167.25;5094911;28;20054;-79
2024/03/17 04:57:52;;;;;;;0.20;0.20;;;;;;;9.03;64.24;102163.69;5098873;28;20153;-79
2024/03/17 05:00:18;;;;;;;0.10;0.10;;;;;;;8.99;64.74;102164.53;5091677;28;20035;-80
2024/03/17 05:02:45;;;;;;;0.10;0.10;;;;;;;8.97;64.50;102168.94;5091148;28;20036;-80
2024/03/17 05:05:11;;;;;;;0.10;0.10;;;;;;;8.97;64.62;102170.66;5099012;28;20028;-77
2024/03/17 05:07:37;;;;;;;0.10;0.10;;;;;;;8.90;64.58;102167.09;5094354;28;20029;-78
2024/03/17 05:10:05;;;;;;;1.88;1.35;;;;;;;8.91;64.91;102158.31;5089600;28;20142;-77
2024/03/17 05:12:31;;;;;;;0.10;0.10;;;;;;;8.88;64.92;102160.91;5094020;28;20498;-79
2024/03/17 05:14:58;;;;;;;0.10;0.10;;;;;;;8.88;64.90;102155.63;5102103;28;20035;-78
2024/03/17 05:17:25;;;;;;;0.10;0.10;;;;;;;8.86;64.96;102155.63;5095565;28;20541;-77
2024/03/17 05:19:51;;;;;;;0.10;0.10;;;;;;;8.84;64.63;102161.78;5079774;28;20040;-77
2024/03/17 05:22:17;;;;;;;0.10;0.10;;;;;;;8.82;65.17;102155.56;5080858;28;20029;-80
2024/03/17 05:24:43;;;;;;;0.10;0.10;;;;;;;8.81;64.67;102145.88;5085530;28;20032;-79
2024/03/17 05:27:10;;;;;;;0.20;0.20;;;;;;;8.80;64.98;102154.66;5088107;28;20188;-77
2024/03/17 05:29:37;;;;;;;0.10;0.10;;;;;;;8.74;65.01;102159.03;5086602;28;20036;-78
2024/03/17 05:32:04;;;;;;;0.10;0.10;;;;;;;8.73;65.18;102154.66;5076173;28;20028;-79
2024/03/17 05:34:32;;;;;;;0.10;0.10;;;;;;;8.77;65.03;102160.81;5081684;28;20055;-77
2024/03/17 05:36:58;;;;;;;0.22;0.22;;;;;;;8.77;65.48;102171.38;5090216;28;20099;-77
2024/03/17 05:39:24;;;;;;;0.08;0.08;;;;;;;8.80;65.29;102165.22;5079105;28;20028;-78
2024/03/17 05:41:52;;;;;;;0.77;0.57;;;;;;;8.82;65.75;102168.78;5076722;28;20104;-78
2024/03/17 05:44:18;;;;;;;0.10;0.10;;;;;;;8.80;65.37;102162.59;5087017;28;20499;-78
2024/03/17 05:46:44;;;;;;;0.10;0.10;;;;;;;8.83;65.46;102160.88;5081489;28;20028;-79
2024/03/17 05:49:10;;;;;;;0.10;0.10;;;;;;;8.85;65.94;102168.84;5076371;28;20036;-78
2024/03/17 05:51:37;;;;;;;0.20;0.20;;;;;;;8.89;65.81;102165.34;5082545;28;20035;-78
2024/03/17 05:54:03;;;;;;;0.10;0.10;;;;;;;8.93;65.62;102156.53;5080995;28;20202;-78
2024/03/17 05:56:29;;;;;;;0.20;0.20;;;;;;;8.97;65.87;102158.34;5077651;28;20031;-78
2024/03/17 05:58:55;;;;;;;0.10;0.10;;;;;;;8.97;65.86;102147.78;5088813;28;20028;-80
2024/03/17 06:01:22;;;;;;;0.10;0.10;;;;;;;8.98;65.93;102154.81;5079487;28;20094;-79
2024/03/17 06:03:48;;;;;;;0.20;0.20;;;;;;;9.00;65.91;102155.72;5080050;28;20025;-79
2024/03/17 06:06:15;;;;;;;0.08;0.08;;;;;;;9.03;66.02;102155.75;5082583;28;20021;-79
2024/03/17 06:08:41;;;;;;;0.10;0.10;;;;;;;9.05;65.87;102155.78;5081453;28;20036;-78
2024/03/17 06:11:08;;;;;;;1.05;1.05;;;;;;;9.09;65.93;102151.38;5080338;28;20029;-79
2024/03/17 06:13:34;;;;;;;0.20;0.20;;;;;;;9.14;65.67;102144.38;5083403;28;20115;-78
2024/03/17 06:16:03;;;;;;;0.73;0.73;;;;;;;9.19;65.57;102153.22;5083868;28;20028;-80
2024/03/17 06:18:29;;;;;;;0.10;0.10;;;;;;;9.19;65.71;102147.94;5085407;28;20020;-79
2024/03/17 06:20:59;;;;;;;0.10;0.10;;;;;;;9.22;65.76;102147.94;5086317;28;20407;-79
2024/03/17 06:23:27;;;;;;;0.10;0.10;;;;;;;9.29;65.58;102149.75;5071536;28;20151;-79
2024/03/17 06:25:55;;;;;;;0.20;0.20;;;;;;;9.37;65.08;102150.69;5083450;28;20040;-79
2024/03/17 06:28:21;;;;;;;0.10;0.10;;;;;;;9.41;65.34;102153.34;5081765;28;20031;-79
2024/03/17 06:30:59;;;;;;;0.30;0.30;;;;;;;9.56;65.30;102148.16;5076491;28;20040;-77
2024/03/17 06:33:26;;;;;;;0.20;0.20;;;;;;;9.58;65.19;102141.09;5073797;28;20111;-77
2024/03/17 06:35:52;;;;;;;0.10;0.10;;;;;;;9.61;64.57;102141.13;5082933;28;20033;-78
2024/03/17 06:38:19;;;;;;;0.10;0.10;;;;;;;9.71;64.67;102137.63;5075778;28;20051;-79
2024/03/17 06:40:52;;;;;;;0.00;0.00;;;;;;;9.84;64.53;102135.03;5074765;28;20032;-80
2024/03/17 06:43:19;;;;;;;0.75;0.75;;;;;;;9.81;64.65;102143.84;5080009;28;20108;-80
2024/03/17 06:45:56;;;;;;;0.90;0.82;;;;;;;9.94;64.52;102147.41;5082361;28;20032;-79
2024/03/17 06:48:22;;;;;;;0.13;0.13;;;;;;;9.95;64.51;102151.84;5081876;28;20056;-78
2024/03/17 06:50:48;;;;;;;1.45;1.38;;;;;;;10.04;64.21;102151.88;5081231;28;20041;-79
2024/03/17 06:53:14;;;;;;;0.10;0.10;;;;;;;10.14;64.44;102151.91;5083688;28;20055;-80
2024/03/17 06:55:40;;;;;;;0.20;0.20;;;;;;;10.24;64.45;102153.69;5088260;28;20036;-78
2024/03/17 06:58:07;;;;;;;0.32;0.32;;;;;;;10.31;64.24;102155.47;5080310;28;20039;-77
2024/03/17 07:00:33;;;;;;;0.82;0.82;;;;;;;10.38;63.83;102147.56;5078795;28;20032;-78
2024/03/17 07:02:59;;;;;;;0.38;0.38;;;;;;;10.46;63.92;102159.06;5094850;28;20031;-77
2024/03/17 07:05:26;;;;;;;0.10;0.10;;;;;;;10.55;63.53;102153.78;5082638;28;20034;-78
2024/03/17 07:07:52;;;;;;;0.10;0.10;;;;;;;10.64;63.84;102160.84;5093452;28;20024;-78
2024/03/17 07:10:18;;;;;;;0.10;0.10;;;;;;;10.68;63.65;102152.91;5088012;28;20025;-78
2024/03/17 07:12:44;;;;;;;0.20;0.20;;;;;;;10.74;63.15;102148.50;5095057;28;20024;-77
2024/03/17 07:15:11;;;;;;;0.10;0.10;;;;;;;10.76;63.56;102141.44;5089922;28;20111;-79
2024/03/17 07:17:37;;;;;;;0.80;0.80;;;;;;;10.76;63.44;102131.69;5090506;28;20024;-78
2024/03/17 07:20:08;;;;;;;0.30;0.30;;;;;;;10.82;63.16;102130.84;5089557;28;20032;-80
2024/03/17 07:22:34;;;;;;;0.10;0.10;;;;;;;10.87;62.75;102139.66;5081258;28;20530;-79
2024/03/17 07:25:01;;;;;;;0.40;0.40;;;;;;;10.96;62.89;102128.16;5080246;28;20123;-80
2024/03/17 07:27:28;;;;;;;0.10;0.10;;;;;;;11.06;63.18;102139.66;5079146;28;20020;-80
2024/03/17 07:29:54;;;;;;;0.10;0.10;;;;;;;11.14;62.30;102140.50;5079290;28;20036;-80
2024/03/17 07:32:22;;;;;;;0.10;0.10;;;;;;;11.18;62.36;102144.94;5081553;28;20032;-79
2024/03/17 07:34:50;;;;;;;0.10;0.10;;;;;;;11.29;62.31;102152.84;5089183;28;20039;-79
2024/03/17 07:37:16;;;;;;;0.10;0.10;;;;;;;11.31;61.46;102145.78;5084675;28;20068;-79
2024/03/17 07:39:42;;;;;;;0.10;0.10;;;;;;;11.37;61.65;102163.47;5071211;28;20052;-78
2024/03/17 07:42:08;;;;;;;0.10;0.10;;;;;;;11.45;61.76;102164.31;5077751;28;20054;-77
2024/03/17 07:44:34;;;;;;;0.10;0.10;;;;;;;11.43;61.93;102156.38;5077509;28;20029;-79
2024/03/17 07:47:03;;;;;;;0.10;0.10;;;;;;;11.45;61.22;102148.41;5078543;28;20028;-78
2024/03/17 07:49:31;;;;;;;0.10;0.10;;;;;;;11.51;61.07;102158.13;5088971;28;20028;-77
2024/03/17 07:51:57;;;;;;;0.10;0.10;;;;;;;11.52;61.42;102170.53;5070266;28;20406;-78
2024/03/17 07:54:25;;;;;;;0.10;0.10;;;;;;;11.55;61.09;102176.72;5085441;28;20486;-80
2024/03/17 07:56:51;;;;;;;0.10;0.10;;;;;;;11.53;61.03;102178.47;5084887;28;20482;-80
2024/03/17 07:59:17;;;;;;;0.20;0.20;;;;;;;11.57;61.51;102172.25;5088094;28;20510;-79
2024/03/17 08:01:44;;;;;;;0.30;0.30;;;;;;;11.55;61.22;102166.09;5079143;28;20032;-79
2024/03/17 08:04:11;;;;;;;0.10;0.10;;;;;;;11.60;61.40;102168.72;5084810;28;20071;-81
2024/03/17 08:06:40;;;;;;;0.28;0.28;;;;;;;11.60;61.02;102161.66;5086844;28;20070;-80
2024/03/17 08:09:08;;;;;;;0.10;0.10;;;;;;;11.69;60.74;102176.66;5085523;28;20511;-81
2024/03/17 08:11:34;;;;;;;0.10;0.10;;;;;;;11.73;61.05;102164.25;5078939;28;20024;-80
2024/03/17 08:14:01;;;;;;;0.10;0.10;;;;;;;11.80;60.88;102150.94;5083098;28;20388;-81
2024/03/17 08:16:29;;;;;;;0.20;0.20;;;;;;;11.81;60.91;102150.06;5072044;28;20025;-80
2024/03/17 08:18:56;;;;;;;0.75;0.75;;;;;;;11.89;60.33;102155.34;5073492;28;20044;-80
2024/03/17 08:21:22;;;;;;;0.20;0.20;;;;;;;11.89;60.63;102150.03;5074598;28;20039;-80
2024/03/17 08:23:48;;;;;;;0.10;0.10;;;;;;;11.95;60.70;102149.09;5073813;28;20032;-81
2024/03/17 08:26:15;;;;;;;0.10;0.10;;;;;;;12.01;60.56;102150.88;5068771;28;20029;-80
2024/03/17 08:28:41;;;;;;;0.10;0.10;;;;;;;12.05;60.77;102156.19;5070907;28;20365;-80
2024/03/17 08:31:07;;;;;;;0.68;0.68;;;;;;;12.11;59.83;102152.59;5072194;28;20039;-79
2024/03/17 08:33:33;;;;;;;0.00;0.00;;;;;;;12.06;59.63;102143.78;5070376;28;20032;-80
2024/03/17 08:38:36;;;;;;;0.38;0.38;;;;;;;12.16;59.94;102140.16;5114866;27;20366;-80
2024/03/17 08:41:05;;;;;;;0.85;0.75;;;;;;;12.21;60.17;102130.41;5080724;28;20487;-79
2024/03/17 08:43:32;;;;;;;0.93;0.77;;;;;;;12.21;60.64;102135.75;5079033;28;20028;-79
2024/03/17 08:46:03;;;;;;;0.10;0.10;;;;;;;12.29;60.90;102133.88;5079970;28;20100;-78
2024/03/17 08:48:30;;;;;;;0.08;0.08;;;;;;;12.33;60.77;102131.22;5070619;28;20119;-79
2024/03/17 08:50:57;;;;;;;0.68;0.68;;;;;;;12.41;60.42;102132.94;5077740;28;20040;-79
2024/03/17 08:53:24;;;;;;;0.10;0.10;;;;;;;12.40;60.47;102135.59;5076960;28;20081;-78
2024/03/17 08:55:50;;;;;;;0.10;0.10;;;;;;;12.45;60.41;102128.50;5091461;28;20044;-80
2024/03/17 08:58:17;;;;;;;0.10;0.10;;;;;;;12.48;60.32;102122.28;5087362;28;20092;-80
2024/03/17 09:00:44;;;;;;;2.95;2.05;;;;;;;12.53;60.15;102117.78;5083981;28;20045;-78
2024/03/17 09:03:11;;;;;;;0.10;0.10;;;;;;;12.53;60.40;102116.00;5092707;28;20024;-80
2024/03/17 09:05:39;;;;;;;0.10;0.10;;;;;;;12.62;60.00;102113.28;5096052;28;20059;-79
2024/03/17 09:08:09;;;;;;;0.10;0.10;;;;;;;12.75;59.83;102113.19;5096231;28;20054;-78
2024/03/17 09:10:44;;;;;;;0.20;0.20;;;;;;;12.92;59.96;102108.59;5098240;28;20030;-77
2024/03/17 09:13:16;;;;;;;0.17;0.17;;;;;;;13.00;59.65;102104.97;5099212;28;20029;-78
2024/03/17 09:15:50;;;;;;;;;;;;;;;13.15;59.37;102107.47;5091291;28;20021;-79
2024/03/17 09:18:16;;;;;;;0.20;0.20;;;;;;;13.09;59.43;102110.19;5098211;28;19908;-78
2024/03/17 09:20:42;;;;;;;0.10;0.10;;;;;;;13.17;59.26;102110.13;5099761;28;20044;-79
2024/03/17 09:23:08;;;;;;;0.50;0.50;;;;;;;13.25;59.15;102105.59;5089664;28;20044;-80
2024/03/17 09:25:35;;;;;;;0.10;0.10;;;;;;;13.31;58.60;102108.19;5095488;28;20020;-78
2024/03/17 09:28:01;;;;;;;0.17;0.17;;;;;;;13.36;58.07;102108.16;5094878;28;20032;-78
2024/03/17 09:30:27;;;;;;;0.10;0.10;;;;;;;13.40;58.02;102110.78;5095218;28;20032;-80
2024/03/17 09:32:53;;;;;;;1.65;1.55;;;;;;;13.52;58.00;102103.53;5092877;28;20021;-77
2024/03/17 09:35:20;;;;;;;0.43;0.43;;;;;;;13.58;58.32;102111.44;5095029;28;20027;-77
2024/03/17 09:37:46;;;;;;;0.28;0.28;;;;;;;13.66;57.75;102100.72;5090862;28;20119;-78
2024/03/17 09:40:15;;;;;;;0.10;0.10;;;;;;;13.82;58.02;102101.38;5088638;28;20036;-79
2024/03/17 09:42:43;;;;;;;0.10;0.10;;;;;;;13.89;57.51;102101.31;5091893;28;20020;-78
2024/03/17 09:45:11;;;;;;;0.10;0.10;;;;;;;14.01;57.30;102107.34;5084898;28;20111;-78
2024/03/17 09:47:37;;;;;;;0.20;0.20;;;;;;;14.01;57.10;102092.25;5089646;28;20548;-79
2024/03/17 09:50:04;;;;;;;0.52;0.52;;;;;;;14.10;56.90;102093.88;5075283;28;20040;-79
2024/03/17 09:52:34;;;;;;;0.82;0.82;;;;;;;14.09;57.13;102100.13;5059537;28;20095;-80
2024/03/17 09:55:09;;;;;;;0.10;0.10;;;;;;;14.18;57.14;102094.66;5071313;28;20609;-78
2024/03/17 09:57:36;;;;;;;0.10;0.10;;;;;;;14.16;56.95;102091.13;5074028;28;20031;-79
2024/03/17 10:00:12;;;;;;;0.10;0.10;;;;;;;14.27;56.93;102090.97;5079533;28;20031;-79
2024/03/17 10:02:45;;;;;;;0.10;0.10;;;;;;;14.30;56.91;102088.25;5075459;28;20036;-80
2024/03/17 10:05:20;;;;;;;;;;;;;;;14.43;56.56;102086.28;5075081;28;20070;-81
2024/03/17 10:07:48;;;;;;;0.85;0.85;;;;;;;14.37;56.45;102086.38;5076238;28;19951;-80
2024/03/17 10:10:16;;;;;;;7.47;0.80;;;;;;;14.37;56.34;102081.06;5075631;28;20051;-80
2024/03/17 10:12:42;;;;;;;1.15;1.15;;;;;;;14.44;56.73;102082.69;5075070;28;20515;-80
2024/03/17 10:15:12;;;;;;;0.17;0.17;;;;;;;14.47;56.67;102077.31;5073990;28;20044;-79
2024/03/17 10:17:39;;;;;;;0.10;0.10;;;;;;;14.43;56.60;102072.97;5070883;28;20021;-80
2024/03/17 10:25:40;;;;;;;0.10;0.10;;;;;;;14.38;56.35;102085.44;5115249;27;20388;-79
2024/03/17 10:28:15;;;;;;;0.00;0.00;;;;;;;14.36;56.42;102082.81;5109744;28;20493;-79
2024/03/17 10:30:42;;;;;;;0.22;0.22;;;;;;;14.35;56.65;102077.53;5111920;28;20425;-79
2024/03/17 10:33:22;;;;;;;0.70;0.70;;;;;;;14.45;56.69;102079.13;5110015;28;20028;-80
2024/03/17 10:35:49;;;;;;;0.45;0.45;;;;;;;14.40;56.85;102078.31;5101130;28;20060;-81
2024/03/17 10:38:16;;;;;;;0.10;0.10;;;;;;;14.42;56.99;102084.53;5108217;28;20028;-79
2024/03/17 10:40:42;;;;;;;0.10;0.10;;;;;;;14.51;56.89;102086.16;5111351;28;20028;-79
2024/03/17 10:43:11;;;;;;;0.25;0.25;;;;;;;14.49;56.81;102083.53;5094018;28;20035;-80
2024/03/17 10:45:38;;;;;;;0.30;0.30;;;;;;;14.57;56.72;102081.59;5092591;28;20036;-83
2024/03/17 10:48:08;;;;;;;0.10;0.10;;;;;;;14.71;56.55;102077.84;5101713;28;20027;-80
2024/03/17 10:50:37;;;;;;;0.40;0.40;;;;;;;14.63;56.40;102077.06;5101579;28;20043;-80
2024/03/17 10:53:08;;;;;;;1.25;1.02;;;;;;;14.76;56.23;102072.44;5094683;28;20069;-79
2024/03/17 10:55:50;;;;;;;0.10;0.10;;;;;;;14.93;56.48;102074.78;5109076;28;20024;-78
2024/03/17 10:58:34;;;;;;;0.10;0.10;;;;;;;14.99;55.93;102072.00;5094967;28;20372;-78
2024/03/17 11:01:03;;;;;;;0.10;0.10;;;;;;;15.03;55.76;102065.72;5103564;28;20053;-80
2024/03/17 11:03:32;;;;;;;0.10;0.10;;;;;;;15.17;56.39;102074.31;5106998;28;20024;-78
2024/03/17 11:06:00;;;;;;;0.10;0.10;;;;;;;15.26;56.02;102069.72;5104462;28;20032;-79
2024/03/17 11:08:27;;;;;;;0.65;0.65;;;;;;;15.28;55.62;102068.78;5090306;28;20065;-81
2024/03/17 11:10:55;;;;;;;0.10;0.10;;;;;;;15.38;55.35;102061.44;5088142;28;20032;-80
2024/03/17 11:13:25;;;;;;;1.30;0.70;;;;;;;15.44;55.24;102064.00;5090734;28;20083;-81
2024/03/17 11:15:53;;;;;;;0.28;0.28;;;;;;;15.48;55.35;102059.47;5091307;28;20036;-78
2024/03/17 11:21:07;;;;;;;0.10;0.10;;;;;;;15.57;55.74;102050.38;5096488;27;20651;-80
2024/03/17 11:23:34;;;;;;;0.13;0.13;;;;;;;15.71;55.78;102047.41;5088159;28;20035;-81
2024/03/17 11:26:00;;;;;;;0.20;0.20;;;;;;;15.69;55.15;102040.28;5087409;28;20047;-81
2024/03/17 11:31:40;;;;;;;1.27;0.43;;;;;;;15.89;54.67;102032.75;5056801;28;20405;-79
2024/03/17 11:34:29;;;;;;;0.68;0.68;;;;;;;15.94;54.75;102030.88;5034687;28;20540;-80
2024/03/17 11:36:56;;;;;;;0.50;0.50;;;;;;;15.95;55.24;102032.63;5036907;28;20025;-80
2024/03/17 11:39:46;;;;;;;0.35;0.30;;;;;;;16.00;54.77;102033.41;5033416;28;20459;-79
2024/03/17 11:42:16;;;;;;;0.68;0.68;;;;;;;15.99;55.30;102035.19;5034462;28;20030;-82
2024/03/17 11:44:56;;;;;;;0.20;0.20;;;;;;;16.01;55.45;102021.78;5031268;28;20045;-79
2024/03/17 11:47:22;;;;;;;0.10;0.10;;;;;;;16.09;55.38;102030.50;5039112;28;20026;-77
2024/03/17 11:49:51;;;;;;;0.17;0.17;;;;;;;16.08;55.80;102025.22;5033709;28;20029;-77
2024/03/17 11:52:19;;;;;;;5.82;0.90;;;;;;;15.97;56.19;102017.44;5038189;28;20038;-78
2024/03/17 11:54:48;;;;;;;0.20;0.20;;;;;;;15.92;56.90;102016.66;5036465;28;20501;-78